sensor_id;sensor_type;location;lat;lon;timestamp;P1;durP1;ratioP1;P2;durP2;ratioP2
65717;SDS011;52445;52.466;-1.016;2023-09-12T00:02:13;4.25;;;2.42;;
65717;SDS011;52445;52.466;-1.016;2023-09-12T00:04:40;4.75;;;2.70;;
65717;SDS011;52445;52.466;-1.016;2023-09-12T00:07:07;5.60;;;2.75;;
65717;SDS011;52445;52.466;-1.016;2023-09-12T00:09:33;5.43;;;2.80;;
65717;SDS011;52445;52.466;-1.016;2023-09-12T00:12:00;5.43;;;2.38;;
65717;SDS011;52445;52.466;-1.016;2023-09-12T00:14:27;5.20;;;2.72;;
65717;SDS011;52445;52.466;-1.016;2023-09-12T00:16:54;4.65;;;2.55;;
65717;SDS011;52445;52.466;-1.016;2023-09-12T00:19:22;6.07;;;2.40;;
65717;SDS011;52445;52.466;-1.016;2023-09-12T00:21:48;5.40;;;2.65;;
65717;SDS011;52445;52.466;-1.016;2023-09-12T00:24:15;5.18;;;2.22;;
65717;SDS011;52445;52.466;-1.016;2023-09-12T00:26:42;4.47;;;2.40;;
65717;SDS011;52445;52.466;-1.016;2023-09-12T00:29:08;5.18;;;2.35;;
65717;SDS011;52445;52.466;-1.016;2023-09-12T00:31:35;5.75;;;2.92;;
65717;SDS011;52445;52.466;-1.016;2023-09-12T00:34:02;3.78;;;2.42;;
65717;SDS011;52445;52.466;-1.016;2023-09-12T00:36:29;4.22;;;2.42;;
65717;SDS011;52445;52.466;-1.016;2023-09-12T00:38:56;4.60;;;2.35;;
65717;SDS011;52445;52.466;-1.016;2023-09-12T00:41:23;5.03;;;2.42;;
65717;SDS011;52445;52.466;-1.016;2023-09-12T00:43:50;5.40;;;2.53;;
65717;SDS011;52445;52.466;-1.016;2023-09-12T00:46:18;4.88;;;2.42;;
65717;SDS011;52445;52.466;-1.016;2023-09-12T00:48:48;4.75;;;2.45;;
65717;SDS011;52445;52.466;-1.016;2023-09-12T00:51:17;4.13;;;2.45;;
65717;SDS011;52445;52.466;-1.016;2023-09-12T00:53:47;4.82;;;2.95;;
65717;SDS011;52445;52.466;-1.016;2023-09-12T00:56:14;4.05;;;2.03;;
65717;SDS011;52445;52.466;-1.016;2023-09-12T00:58:40;4.70;;;2.22;;
65717;SDS011;52445;52.466;-1.016;2023-09-12T01:01:08;4.63;;;2.15;;
65717;SDS011;52445;52.466;-1.016;2023-09-12T01:03:35;3.55;;;2.30;;
65717;SDS011;52445;52.466;-1.016;2023-09-12T01:06:02;8.57;;;2.75;;
65717;SDS011;52445;52.466;-1.016;2023-09-12T01:08:29;6.50;;;2.47;;
65717;SDS011;52445;52.466;-1.016;2023-09-12T01:10:56;5.75;;;2.60;;
65717;SDS011;52445;52.466;-1.016;2023-09-12T01:13:24;4.20;;;2.72;;
65717;SDS011;52445;52.466;-1.016;2023-09-12T01:15:51;6.70;;;2.53;;
65717;SDS011;52445;52.466;-1.016;2023-09-12T01:18:18;4.43;;;2.03;;
65717;SDS011;52445;52.466;-1.016;2023-09-12T01:20:59;7.55;;;2.72;;
65717;SDS011;52445;52.466;-1.016;2023-09-12T01:26:46;4.60;;;2.05;;
65717;SDS011;52445;52.466;-1.016;2023-09-12T01:29:22;4.28;;;2.28;;
65717;SDS011;52445;52.466;-1.016;2023-09-12T01:31:50;3.05;;;1.65;;
65717;SDS011;52445;52.466;-1.016;2023-09-12T01:34:19;4.50;;;2.30;;
65717;SDS011;52445;52.466;-1.016;2023-09-12T01:36:45;5.85;;;2.97;;
65717;SDS011;52445;52.466;-1.016;2023-09-12T01:39:12;4.20;;;2.35;;
65717;SDS011;52445;52.466;-1.016;2023-09-12T01:41:40;3.38;;;2.20;;
65717;SDS011;52445;52.466;-1.016;2023-09-12T01:44:10;3.83;;;2.08;;
65717;SDS011;52445;52.466;-1.016;2023-09-12T01:46:38;3.78;;;1.90;;
65717;SDS011;52445;52.466;-1.016;2023-09-12T01:49:05;4.45;;;2.40;;
65717;SDS011;52445;52.466;-1.016;2023-09-12T01:51:35;4.05;;;2.00;;
65717;SDS011;52445;52.466;-1.016;2023-09-12T01:54:03;3.42;;;2.38;;
65717;SDS011;52445;52.466;-1.016;2023-09-12T01:56:30;3.47;;;2.15;;
65717;SDS011;52445;52.466;-1.016;2023-09-12T01:58:58;6.00;;;2.47;;
65717;SDS011;52445;52.466;-1.016;2023-09-12T02:01:25;4.50;;;2.08;;
65717;SDS011;52445;52.466;-1.016;2023-09-12T02:03:53;5.70;;;2.83;;
65717;SDS011;52445;52.466;-1.016;2023-09-12T02:06:20;5.57;;;2.95;;
65717;SDS011;52445;52.466;-1.016;2023-09-12T02:08:47;5.22;;;2.20;;
65717;SDS011;52445;52.466;-1.016;2023-09-12T02:11:13;4.82;;;2.33;;
65717;SDS011;52445;52.466;-1.016;2023-09-12T02:13:40;4.60;;;2.00;;
65717;SDS011;52445;52.466;-1.016;2023-09-12T02:16:07;5.63;;;2.55;;
65717;SDS011;52445;52.466;-1.016;2023-09-12T02:18:34;4.47;;;2.10;;
65717;SDS011;52445;52.466;-1.016;2023-09-12T02:21:00;6.07;;;2.50;;
65717;SDS011;52445;52.466;-1.016;2023-09-12T02:23:27;7.47;;;2.35;;
65717;SDS011;52445;52.466;-1.016;2023-09-12T02:25:54;4.72;;;2.83;;
65717;SDS011;52445;52.466;-1.016;2023-09-12T02:28:22;4.22;;;2.22;;
65717;SDS011;52445;52.466;-1.016;2023-09-12T02:30:49;4.22;;;2.50;;
65717;SDS011;52445;52.466;-1.016;2023-09-12T02:33:15;4.93;;;2.75;;
65717;SDS011;52445;52.466;-1.016;2023-09-12T02:35:42;3.72;;;2.33;;
65717;SDS011;52445;52.466;-1.016;2023-09-12T02:38:09;4.80;;;3.17;;
65717;SDS011;52445;52.466;-1.016;2023-09-12T02:40:35;6.55;;;3.10;;
65717;SDS011;52445;52.466;-1.016;2023-09-12T02:43:02;4.97;;;2.63;;
65717;SDS011;52445;52.466;-1.016;2023-09-12T02:45:29;7.03;;;2.75;;
65717;SDS011;52445;52.466;-1.016;2023-09-12T02:47:56;5.70;;;2.70;;
65717;SDS011;52445;52.466;-1.016;2023-09-12T02:50:22;6.90;;;3.40;;
65717;SDS011;52445;52.466;-1.016;2023-09-12T02:52:49;6.43;;;3.25;;
65717;SDS011;52445;52.466;-1.016;2023-09-12T02:55:16;4.53;;;2.85;;
65717;SDS011;52445;52.466;-1.016;2023-09-12T02:57:42;4.18;;;2.55;;
65717;SDS011;52445;52.466;-1.016;2023-09-12T03:00:09;6.30;;;3.22;;
65717;SDS011;52445;52.466;-1.016;2023-09-12T03:02:37;6.30;;;3.22;;
65717;SDS011;52445;52.466;-1.016;2023-09-12T03:05:04;7.55;;;3.33;;
65717;SDS011;52445;52.466;-1.016;2023-09-12T03:07:31;6.35;;;3.15;;
65717;SDS011;52445;52.466;-1.016;2023-09-12T03:09:58;8.90;;;3.47;;
65717;SDS011;52445;52.466;-1.016;2023-09-12T03:12:24;6.65;;;3.55;;
65717;SDS011;52445;52.466;-1.016;2023-09-12T03:14:51;5.88;;;3.40;;
65717;SDS011;52445;52.466;-1.016;2023-09-12T03:17:18;7.65;;;3.60;;
65717;SDS011;52445;52.466;-1.016;2023-09-12T03:19:45;9.45;;;3.53;;
65717;SDS011;52445;52.466;-1.016;2023-09-12T03:22:11;6.82;;;3.80;;
65717;SDS011;52445;52.466;-1.016;2023-09-12T03:24:38;6.78;;;3.47;;
65717;SDS011;52445;52.466;-1.016;2023-09-12T03:27:05;7.88;;;3.42;;
65717;SDS011;52445;52.466;-1.016;2023-09-12T03:29:31;8.07;;;3.63;;
65717;SDS011;52445;52.466;-1.016;2023-09-12T03:31:58;6.53;;;3.28;;
65717;SDS011;52445;52.466;-1.016;2023-09-12T03:34:25;8.25;;;3.17;;
65717;SDS011;52445;52.466;-1.016;2023-09-12T03:36:51;7.65;;;3.78;;
65717;SDS011;52445;52.466;-1.016;2023-09-12T03:39:18;7.05;;;3.17;;
65717;SDS011;52445;52.466;-1.016;2023-09-12T03:41:45;7.30;;;3.40;;
65717;SDS011;52445;52.466;-1.016;2023-09-12T03:44:12;6.00;;;3.20;;
65717;SDS011;52445;52.466;-1.016;2023-09-12T03:46:38;6.03;;;3.30;;
65717;SDS011;52445;52.466;-1.016;2023-09-12T03:49:05;7.60;;;4.28;;
65717;SDS011;52445;52.466;-1.016;2023-09-12T03:51:33;7.60;;;3.30;;
65717;SDS011;52445;52.466;-1.016;2023-09-12T03:54:01;7.25;;;3.08;;
65717;SDS011;52445;52.466;-1.016;2023-09-12T03:56:27;6.45;;;3.17;;
65717;SDS011;52445;52.466;-1.016;2023-09-12T03:58:54;7.95;;;4.10;;
65717;SDS011;52445;52.466;-1.016;2023-09-12T04:01:24;8.18;;;3.75;;
65717;SDS011;52445;52.466;-1.016;2023-09-12T04:03:50;6.50;;;3.17;;
65717;SDS011;52445;52.466;-1.016;2023-09-12T04:06:17;6.95;;;3.75;;
65717;SDS011;52445;52.466;-1.016;2023-09-12T04:08:44;7.97;;;3.42;;
65717;SDS011;52445;52.466;-1.016;2023-09-12T04:11:11;7.20;;;3.83;;
65717;SDS011;52445;52.466;-1.016;2023-09-12T04:13:38;7.95;;;4.38;;
65717;SDS011;52445;52.466;-1.016;2023-09-12T04:16:04;6.57;;;3.83;;
65717;SDS011;52445;52.466;-1.016;2023-09-12T04:18:31;7.65;;;3.33;;
65717;SDS011;52445;52.466;-1.016;2023-09-12T04:20:58;6.45;;;3.63;;
65717;SDS011;52445;52.466;-1.016;2023-09-12T04:23:25;8.25;;;4.03;;
65717;SDS011;52445;52.466;-1.016;2023-09-12T04:25:52;7.70;;;3.60;;
65717;SDS011;52445;52.466;-1.016;2023-09-12T04:28:18;8.90;;;3.50;;
65717;SDS011;52445;52.466;-1.016;2023-09-12T04:30:45;7.55;;;3.70;;
65717;SDS011;52445;52.466;-1.016;2023-09-12T04:33:12;7.10;;;3.90;;
65717;SDS011;52445;52.466;-1.016;2023-09-12T04:35:39;7.18;;;3.92;;
65717;SDS011;52445;52.466;-1.016;2023-09-12T04:38:06;11.73;;;5.38;;
65717;SDS011;52445;52.466;-1.016;2023-09-12T04:40:33;7.35;;;3.65;;
65717;SDS011;52445;52.466;-1.016;2023-09-12T04:43:00;6.82;;;3.58;;
65717;SDS011;52445;52.466;-1.016;2023-09-12T04:45:26;8.98;;;3.50;;
65717;SDS011;52445;52.466;-1.016;2023-09-12T04:47:53;9.90;;;4.38;;
65717;SDS011;52445;52.466;-1.016;2023-09-12T04:50:20;11.10;;;3.95;;
65717;SDS011;52445;52.466;-1.016;2023-09-12T04:52:46;8.90;;;3.97;;
65717;SDS011;52445;52.466;-1.016;2023-09-12T04:55:13;8.57;;;4.15;;
65717;SDS011;52445;52.466;-1.016;2023-09-12T04:57:40;7.60;;;4.50;;
65717;SDS011;52445;52.466;-1.016;2023-09-12T05:00:08;9.10;;;4.25;;
65717;SDS011;52445;52.466;-1.016;2023-09-12T05:02:37;8.15;;;3.75;;
65717;SDS011;52445;52.466;-1.016;2023-09-12T05:05:04;11.25;;;3.50;;
65717;SDS011;52445;52.466;-1.016;2023-09-12T05:07:31;8.95;;;4.72;;
65717;SDS011;52445;52.466;-1.016;2023-09-12T05:09:58;8.10;;;4.22;;
65717;SDS011;52445;52.466;-1.016;2023-09-12T05:12:24;7.25;;;2.97;;
65717;SDS011;52445;52.466;-1.016;2023-09-12T05:14:51;10.32;;;4.28;;
65717;SDS011;52445;52.466;-1.016;2023-09-12T05:17:18;6.75;;;3.83;;
65717;SDS011;52445;52.466;-1.016;2023-09-12T05:19:44;5.95;;;3.47;;
65717;SDS011;52445;52.466;-1.016;2023-09-12T05:22:11;9.30;;;4.30;;
65717;SDS011;52445;52.466;-1.016;2023-09-12T05:24:38;8.52;;;3.65;;
65717;SDS011;52445;52.466;-1.016;2023-09-12T05:27:05;8.27;;;3.72;;
65717;SDS011;52445;52.466;-1.016;2023-09-12T05:29:32;7.38;;;3.88;;
65717;SDS011;52445;52.466;-1.016;2023-09-12T05:31:59;8.13;;;3.25;;
65717;SDS011;52445;52.466;-1.016;2023-09-12T05:34:25;8.13;;;3.08;;
65717;SDS011;52445;52.466;-1.016;2023-09-12T05:36:52;7.85;;;2.88;;
65717;SDS011;52445;52.466;-1.016;2023-09-12T05:39:19;6.68;;;3.08;;
65717;SDS011;52445;52.466;-1.016;2023-09-12T05:41:46;7.22;;;3.80;;
65717;SDS011;52445;52.466;-1.016;2023-09-12T05:44:12;6.63;;;3.08;;
65717;SDS011;52445;52.466;-1.016;2023-09-12T05:46:45;7.88;;;2.95;;
65717;SDS011;52445;52.466;-1.016;2023-09-12T05:49:13;7.22;;;3.25;;
65717;SDS011;52445;52.466;-1.016;2023-09-12T05:51:41;6.63;;;2.50;;
65717;SDS011;52445;52.466;-1.016;2023-09-12T05:54:09;8.18;;;3.75;;
65717;SDS011;52445;52.466;-1.016;2023-09-12T05:56:36;8.63;;;3.75;;
65717;SDS011;52445;52.466;-1.016;2023-09-12T05:59:03;7.10;;;3.28;;
65717;SDS011;52445;52.466;-1.016;2023-09-12T06:01:30;6.22;;;3.67;;
65717;SDS011;52445;52.466;-1.016;2023-09-12T06:03:57;6.65;;;3.35;;
65717;SDS011;52445;52.466;-1.016;2023-09-12T06:06:24;8.27;;;3.22;;
65717;SDS011;52445;52.466;-1.016;2023-09-12T06:08:51;5.20;;;2.63;;
65717;SDS011;52445;52.466;-1.016;2023-09-12T06:11:19;6.63;;;3.30;;
65717;SDS011;52445;52.466;-1.016;2023-09-12T06:13:46;5.60;;;2.95;;
65717;SDS011;52445;52.466;-1.016;2023-09-12T06:16:13;6.85;;;3.42;;
65717;SDS011;52445;52.466;-1.016;2023-09-12T06:18:39;7.07;;;2.90;;
65717;SDS011;52445;52.466;-1.016;2023-09-12T06:21:07;6.13;;;3.30;;
65717;SDS011;52445;52.466;-1.016;2023-09-12T06:23:35;5.45;;;2.95;;
65717;SDS011;52445;52.466;-1.016;2023-09-12T06:26:02;6.45;;;3.33;;
65717;SDS011;52445;52.466;-1.016;2023-09-12T06:28:29;8.65;;;4.28;;
65717;SDS011;52445;52.466;-1.016;2023-09-12T06:30:57;7.22;;;3.53;;
65717;SDS011;52445;52.466;-1.016;2023-09-12T06:33:25;7.15;;;3.28;;
65717;SDS011;52445;52.466;-1.016;2023-09-12T06:35:53;5.63;;;3.35;;
65717;SDS011;52445;52.466;-1.016;2023-09-12T06:38:20;8.90;;;3.15;;
65717;SDS011;52445;52.466;-1.016;2023-09-12T06:40:48;10.10;;;4.35;;
65717;SDS011;52445;52.466;-1.016;2023-09-12T06:43:15;8.73;;;3.92;;
65717;SDS011;52445;52.466;-1.016;2023-09-12T06:45:41;8.25;;;4.07;;
65717;SDS011;52445;52.466;-1.016;2023-09-12T06:48:09;9.63;;;3.35;;
65717;SDS011;52445;52.466;-1.016;2023-09-12T06:50:35;8.57;;;3.83;;
65717;SDS011;52445;52.466;-1.016;2023-09-12T06:53:04;6.57;;;3.40;;
65717;SDS011;52445;52.466;-1.016;2023-09-12T06:55:33;10.05;;;4.82;;
65717;SDS011;52445;52.466;-1.016;2023-09-12T06:58:00;8.45;;;3.60;;
65717;SDS011;52445;52.466;-1.016;2023-09-12T07:00:27;12.32;;;4.30;;
65717;SDS011;52445;52.466;-1.016;2023-09-12T07:02:54;8.82;;;4.25;;
65717;SDS011;52445;52.466;-1.016;2023-09-12T07:05:21;10.98;;;3.97;;
65717;SDS011;52445;52.466;-1.016;2023-09-12T07:07:48;8.13;;;3.75;;
65717;SDS011;52445;52.466;-1.016;2023-09-12T07:10:14;8.35;;;3.92;;
65717;SDS011;52445;52.466;-1.016;2023-09-12T07:12:50;9.02;;;4.00;;
65717;SDS011;52445;52.466;-1.016;2023-09-12T07:15:18;7.35;;;3.90;;
65717;SDS011;52445;52.466;-1.016;2023-09-12T07:17:45;10.20;;;3.75;;
65717;SDS011;52445;52.466;-1.016;2023-09-12T07:20:12;8.55;;;3.85;;
65717;SDS011;52445;52.466;-1.016;2023-09-12T07:22:39;6.57;;;3.58;;
65717;SDS011;52445;52.466;-1.016;2023-09-12T07:25:06;8.10;;;3.83;;
65717;SDS011;52445;52.466;-1.016;2023-09-12T07:27:35;8.40;;;4.40;;
65717;SDS011;52445;52.466;-1.016;2023-09-12T07:30:05;9.15;;;3.95;;
65717;SDS011;52445;52.466;-1.016;2023-09-12T07:32:32;9.27;;;4.28;;
65717;SDS011;52445;52.466;-1.016;2023-09-12T07:34:59;10.13;;;4.05;;
65717;SDS011;52445;52.466;-1.016;2023-09-12T07:37:26;8.25;;;3.65;;
65717;SDS011;52445;52.466;-1.016;2023-09-12T07:39:53;7.55;;;3.83;;
65717;SDS011;52445;52.466;-1.016;2023-09-12T07:42:22;8.30;;;3.78;;
65717;SDS011;52445;52.466;-1.016;2023-09-12T07:47:16;9.35;;;4.35;;
65717;SDS011;52445;52.466;-1.016;2023-09-12T07:49:43;7.07;;;3.90;;
65717;SDS011;52445;52.466;-1.016;2023-09-12T07:52:10;8.68;;;4.00;;
65717;SDS011;52445;52.466;-1.016;2023-09-12T07:54:36;9.38;;;4.20;;
65717;SDS011;52445;52.466;-1.016;2023-09-12T07:57:03;8.65;;;3.42;;
65717;SDS011;52445;52.466;-1.016;2023-09-12T07:59:30;8.63;;;3.72;;
65717;SDS011;52445;52.466;-1.016;2023-09-12T08:01:57;7.15;;;3.88;;
65717;SDS011;52445;52.466;-1.016;2023-09-12T08:04:24;6.60;;;3.47;;
65717;SDS011;52445;52.466;-1.016;2023-09-12T08:06:50;13.30;;;4.45;;
65717;SDS011;52445;52.466;-1.016;2023-09-12T08:09:24;8.68;;;3.47;;
65717;SDS011;52445;52.466;-1.016;2023-09-12T08:12:11;8.00;;;4.50;;
65717;SDS011;52445;52.466;-1.016;2023-09-12T08:14:37;8.57;;;3.42;;
65717;SDS011;52445;52.466;-1.016;2023-09-12T08:17:05;8.05;;;3.67;;
65717;SDS011;52445;52.466;-1.016;2023-09-12T08:19:32;7.93;;;4.25;;
65717;SDS011;52445;52.466;-1.016;2023-09-12T08:21:59;7.40;;;3.83;;
65717;SDS011;52445;52.466;-1.016;2023-09-12T08:24:26;8.13;;;4.47;;
65717;SDS011;52445;52.466;-1.016;2023-09-12T08:26:53;7.55;;;3.33;;
65717;SDS011;52445;52.466;-1.016;2023-09-12T08:29:20;7.85;;;3.92;;
65717;SDS011;52445;52.466;-1.016;2023-09-12T08:31:47;7.80;;;4.00;;
65717;SDS011;52445;52.466;-1.016;2023-09-12T08:34:14;8.85;;;3.58;;
65717;SDS011;52445;52.466;-1.016;2023-09-12T08:36:41;8.98;;;4.82;;
65717;SDS011;52445;52.466;-1.016;2023-09-12T08:39:11;8.40;;;4.50;;
65717;SDS011;52445;52.466;-1.016;2023-09-12T08:41:40;11.40;;;4.50;;
65717;SDS011;52445;52.466;-1.016;2023-09-12T08:44:06;7.95;;;4.05;;
65717;SDS011;52445;52.466;-1.016;2023-09-12T08:46:34;9.70;;;4.00;;
65717;SDS011;52445;52.466;-1.016;2023-09-12T08:49:01;8.38;;;4.32;;
65717;SDS011;52445;52.466;-1.016;2023-09-12T08:51:29;8.15;;;3.95;;
65717;SDS011;52445;52.466;-1.016;2023-09-12T08:53:58;7.25;;;4.25;;
65717;SDS011;52445;52.466;-1.016;2023-09-12T08:56:26;6.97;;;4.20;;
65717;SDS011;52445;52.466;-1.016;2023-09-12T08:58:53;6.13;;;3.85;;
65717;SDS011;52445;52.466;-1.016;2023-09-12T09:01:21;7.00;;;3.45;;
65717;SDS011;52445;52.466;-1.016;2023-09-12T09:03:48;8.38;;;3.60;;
65717;SDS011;52445;52.466;-1.016;2023-09-12T09:06:15;8.55;;;4.10;;
65717;SDS011;52445;52.466;-1.016;2023-09-12T09:08:43;6.10;;;3.50;;
65717;SDS011;52445;52.466;-1.016;2023-09-12T09:11:11;6.20;;;3.55;;
65717;SDS011;52445;52.466;-1.016;2023-09-12T09:13:38;7.55;;;4.03;;
65717;SDS011;52445;52.466;-1.016;2023-09-12T09:16:20;7.05;;;3.38;;
65717;SDS011;52445;52.466;-1.016;2023-09-12T09:21:28;6.95;;;4.57;;
65717;SDS011;52445;52.466;-1.016;2023-09-12T09:24:00;8.55;;;4.63;;
65717;SDS011;52445;52.466;-1.016;2023-09-12T09:26:46;6.97;;;4.80;;
65717;SDS011;52445;52.466;-1.016;2023-09-12T09:29:18;6.75;;;3.75;;
65717;SDS011;52445;52.466;-1.016;2023-09-12T09:31:51;7.35;;;4.57;;
65717;SDS011;52445;52.466;-1.016;2023-09-12T09:34:19;5.53;;;4.20;;
65717;SDS011;52445;52.466;-1.016;2023-09-12T09:36:48;5.78;;;3.53;;
65717;SDS011;52445;52.466;-1.016;2023-09-12T09:39:25;4.65;;;2.60;;
65717;SDS011;52445;52.466;-1.016;2023-09-12T09:44:22;4.25;;;2.40;;
65717;SDS011;52445;52.466;-1.016;2023-09-12T09:46:55;4.47;;;2.88;;
65717;SDS011;52445;52.466;-1.016;2023-09-12T09:49:27;5.70;;;2.45;;
65717;SDS011;52445;52.466;-1.016;2023-09-12T09:51:54;4.25;;;2.38;;
65717;SDS011;52445;52.466;-1.016;2023-09-12T09:54:23;4.13;;;2.70;;
65717;SDS011;52445;52.466;-1.016;2023-09-12T09:56:53;4.40;;;2.38;;
65717;SDS011;52445;52.466;-1.016;2023-09-12T09:59:24;5.32;;;2.17;;
65717;SDS011;52445;52.466;-1.016;2023-09-12T10:01:53;4.50;;;2.83;;
65717;SDS011;52445;52.466;-1.016;2023-09-12T10:04:23;3.90;;;1.90;;
65717;SDS011;52445;52.466;-1.016;2023-09-12T10:06:54;5.13;;;2.50;;
65717;SDS011;52445;52.466;-1.016;2023-09-12T10:09:23;7.00;;;2.78;;
65717;SDS011;52445;52.466;-1.016;2023-09-12T10:11:52;4.85;;;2.50;;
65717;SDS011;52445;52.466;-1.016;2023-09-12T10:14:22;4.65;;;2.45;;
65717;SDS011;52445;52.466;-1.016;2023-09-12T10:16:50;3.45;;;1.90;;
65717;SDS011;52445;52.466;-1.016;2023-09-12T10:19:23;6.53;;;2.58;;
65717;SDS011;52445;52.466;-1.016;2023-09-12T10:22:08;5.72;;;2.50;;
65717;SDS011;52445;52.466;-1.016;2023-09-12T10:24:38;4.43;;;2.42;;
65717;SDS011;52445;52.466;-1.016;2023-09-12T10:27:06;5.32;;;2.28;;
65717;SDS011;52445;52.466;-1.016;2023-09-12T10:29:35;5.40;;;2.00;;
65717;SDS011;52445;52.466;-1.016;2023-09-12T10:32:02;5.38;;;2.13;;
65717;SDS011;52445;52.466;-1.016;2023-09-12T10:34:30;4.00;;;2.25;;
65717;SDS011;52445;52.466;-1.016;2023-09-12T10:36:58;2.70;;;1.60;;
65717;SDS011;52445;52.466;-1.016;2023-09-12T10:39:26;3.78;;;1.67;;
65717;SDS011;52445;52.466;-1.016;2023-09-12T10:41:55;1.98;;;1.13;;
65717;SDS011;52445;52.466;-1.016;2023-09-12T10:44:23;2.10;;;1.27;;
65717;SDS011;52445;52.466;-1.016;2023-09-12T10:46:51;3.80;;;1.20;;
65717;SDS011;52445;52.466;-1.016;2023-09-12T10:49:21;3.05;;;1.45;;
65717;SDS011;52445;52.466;-1.016;2023-09-12T10:51:48;1.38;;;0.70;;
65717;SDS011;52445;52.466;-1.016;2023-09-12T10:54:23;1.55;;;0.70;;
65717;SDS011;52445;52.466;-1.016;2023-09-12T10:57:08;1.67;;;0.90;;
65717;SDS011;52445;52.466;-1.016;2023-09-12T10:59:50;1.40;;;0.80;;
65717;SDS011;52445;52.466;-1.016;2023-09-12T11:02:37;1.38;;;0.50;;
65717;SDS011;52445;52.466;-1.016;2023-09-12T11:05:06;2.00;;;0.60;;
65717;SDS011;52445;52.466;-1.016;2023-09-12T11:07:56;2.38;;;0.70;;
65717;SDS011;52445;52.466;-1.016;2023-09-12T11:10:25;1.63;;;0.90;;
65717;SDS011;52445;52.466;-1.016;2023-09-12T11:12:53;4.30;;;1.45;;
65717;SDS011;52445;52.466;-1.016;2023-09-12T11:15:24;3.05;;;1.58;;
65717;SDS011;52445;52.466;-1.016;2023-09-12T11:18:07;2.65;;;0.68;;
65717;SDS011;52445;52.466;-1.016;2023-09-12T11:23:27;1.23;;;0.80;;
65717;SDS011;52445;52.466;-1.016;2023-09-12T11:26:09;2.65;;;1.02;;
65717;SDS011;52445;52.466;-1.016;2023-09-12T11:28:38;1.65;;;0.70;;
65717;SDS011;52445;52.466;-1.016;2023-09-12T11:31:05;1.85;;;0.85;;
65717;SDS011;52445;52.466;-1.016;2023-09-12T11:33:32;3.33;;;1.70;;
65717;SDS011;52445;52.466;-1.016;2023-09-12T11:36:00;4.68;;;2.40;;
65717;SDS011;52445;52.466;-1.016;2023-09-12T11:38:33;2.30;;;0.98;;
65717;SDS011;52445;52.466;-1.016;2023-09-12T11:40:59;2.35;;;1.13;;
65717;SDS011;52445;52.466;-1.016;2023-09-12T11:43:27;4.65;;;1.15;;
65717;SDS011;52445;52.466;-1.016;2023-09-12T11:45:55;4.47;;;1.35;;
65717;SDS011;52445;52.466;-1.016;2023-09-12T11:48:23;4.13;;;1.15;;
65717;SDS011;52445;52.466;-1.016;2023-09-12T11:50:52;2.85;;;2.28;;
65717;SDS011;52445;52.466;-1.016;2023-09-12T11:53:22;6.13;;;1.50;;
65717;SDS011;52445;52.466;-1.016;2023-09-12T11:55:56;4.03;;;1.73;;
65717;SDS011;52445;52.466;-1.016;2023-09-12T11:58:24;4.53;;;1.30;;
65717;SDS011;52445;52.466;-1.016;2023-09-12T12:00:54;3.22;;;1.55;;
65717;SDS011;52445;52.466;-1.016;2023-09-12T12:03:23;3.90;;;2.50;;
65717;SDS011;52445;52.466;-1.016;2023-09-12T12:05:53;2.72;;;1.63;;
65717;SDS011;52445;52.466;-1.016;2023-09-12T12:08:21;2.78;;;1.60;;
65717;SDS011;52445;52.466;-1.016;2023-09-12T12:10:58;4.15;;;1.77;;
65717;SDS011;52445;52.466;-1.016;2023-09-12T12:13:26;3.63;;;1.65;;
65717;SDS011;52445;52.466;-1.016;2023-09-12T12:15:55;4.05;;;3.30;;
65717;SDS011;52445;52.466;-1.016;2023-09-12T12:18:23;3.72;;;2.20;;
65717;SDS011;52445;52.466;-1.016;2023-09-12T12:20:50;2.80;;;1.58;;
65717;SDS011;52445;52.466;-1.016;2023-09-12T12:23:16;3.13;;;1.40;;
65717;SDS011;52445;52.466;-1.016;2023-09-12T12:25:43;3.30;;;1.55;;
65717;SDS011;52445;52.466;-1.016;2023-09-12T12:28:10;5.57;;;2.30;;
65717;SDS011;52445;52.466;-1.016;2023-09-12T12:30:37;4.10;;;1.90;;
65717;SDS011;52445;52.466;-1.016;2023-09-12T12:33:08;3.80;;;2.00;;
65717;SDS011;52445;52.466;-1.016;2023-09-12T12:35:59;1.50;;;0.65;;
65717;SDS011;52445;52.466;-1.016;2023-09-12T12:38:30;1.63;;;0.55;;
65717;SDS011;52445;52.466;-1.016;2023-09-12T12:41:00;1.00;;;0.75;;
65717;SDS011;52445;52.466;-1.016;2023-09-12T12:43:27;2.55;;;0.70;;
65717;SDS011;52445;52.466;-1.016;2023-09-12T12:45:55;1.27;;;0.90;;
65717;SDS011;52445;52.466;-1.016;2023-09-12T12:51:14;1.00;;;0.65;;
65717;SDS011;52445;52.466;-1.016;2023-09-12T12:53:44;1.20;;;0.80;;
65717;SDS011;52445;52.466;-1.016;2023-09-12T12:56:20;1.58;;;1.42;;
65717;SDS011;52445;52.466;-1.016;2023-09-12T12:58:49;1.13;;;0.60;;
65717;SDS011;52445;52.466;-1.016;2023-09-12T13:03:53;1.10;;;0.73;;
65717;SDS011;52445;52.466;-1.016;2023-09-12T13:06:22;1.42;;;1.05;;
65717;SDS011;52445;52.466;-1.016;2023-09-12T13:08:49;3.45;;;1.25;;
65717;SDS011;52445;52.466;-1.016;2023-09-12T13:11:16;1.42;;;1.05;;
65717;SDS011;52445;52.466;-1.016;2023-09-12T13:13:44;1.15;;;0.77;;
65717;SDS011;52445;52.466;-1.016;2023-09-12T13:16:13;1.45;;;1.15;;
65717;SDS011;52445;52.466;-1.016;2023-09-12T13:18:41;0.80;;;0.57;;
65717;SDS011;52445;52.466;-1.016;2023-09-12T13:21:08;1.20;;;0.93;;
65717;SDS011;52445;52.466;-1.016;2023-09-12T13:23:36;1.20;;;0.80;;
65717;SDS011;52445;52.466;-1.016;2023-09-12T13:26:04;0.80;;;0.75;;
65717;SDS011;52445;52.466;-1.016;2023-09-12T13:28:33;1.20;;;0.90;;
65717;SDS011;52445;52.466;-1.016;2023-09-12T13:31:00;2.80;;;0.60;;
65717;SDS011;52445;52.466;-1.016;2023-09-12T13:33:27;2.30;;;0.88;;
65717;SDS011;52445;52.466;-1.016;2023-09-12T13:35:54;1.02;;;0.70;;
65717;SDS011;52445;52.466;-1.016;2023-09-12T13:38:20;1.10;;;0.73;;
65717;SDS011;52445;52.466;-1.016;2023-09-12T13:40:49;1.20;;;1.02;;
65717;SDS011;52445;52.466;-1.016;2023-09-12T13:43:16;2.65;;;0.82;;
65717;SDS011;52445;52.466;-1.016;2023-09-12T13:45:43;1.00;;;0.73;;
65717;SDS011;52445;52.466;-1.016;2023-09-12T13:48:10;1.10;;;0.63;;
65717;SDS011;52445;52.466;-1.016;2023-09-12T13:50:38;0.70;;;0.52;;
65717;SDS011;52445;52.466;-1.016;2023-09-12T13:53:05;0.70;;;0.60;;
65717;SDS011;52445;52.466;-1.016;2023-09-12T13:55:33;0.77;;;0.55;;
65717;SDS011;52445;52.466;-1.016;2023-09-12T13:58:02;0.95;;;0.85;;
65717;SDS011;52445;52.466;-1.016;2023-09-12T14:00:30;0.70;;;0.55;;
65717;SDS011;52445;52.466;-1.016;2023-09-12T14:03:03;0.57;;;0.47;;
65717;SDS011;52445;52.466;-1.016;2023-09-12T14:05:31;0.77;;;0.77;;
65717;SDS011;52445;52.466;-1.016;2023-09-12T14:07:58;0.63;;;0.40;;
65717;SDS011;52445;52.466;-1.016;2023-09-12T14:10:26;2.72;;;0.80;;
65717;SDS011;52445;52.466;-1.016;2023-09-12T14:13:03;0.70;;;0.63;;
65717;SDS011;52445;52.466;-1.016;2023-09-12T14:15:46;1.05;;;0.60;;
65717;SDS011;52445;52.466;-1.016;2023-09-12T14:18:16;1.08;;;1.02;;
65717;SDS011;52445;52.466;-1.016;2023-09-12T14:20:45;2.08;;;0.60;;
65717;SDS011;52445;52.466;-1.016;2023-09-12T14:23:14;1.00;;;0.82;;
65717;SDS011;52445;52.466;-1.016;2023-09-12T14:25:43;1.00;;;0.70;;
65717;SDS011;52445;52.466;-1.016;2023-09-12T14:28:12;2.03;;;0.50;;
65717;SDS011;52445;52.466;-1.016;2023-09-12T14:30:41;1.05;;;0.82;;
65717;SDS011;52445;52.466;-1.016;2023-09-12T14:33:11;1.02;;;0.75;;
65717;SDS011;52445;52.466;-1.016;2023-09-12T14:35:43;0.70;;;0.45;;
65717;SDS011;52445;52.466;-1.016;2023-09-12T14:38:10;0.60;;;0.40;;
65717;SDS011;52445;52.466;-1.016;2023-09-12T14:40:37;0.73;;;0.73;;
65717;SDS011;52445;52.466;-1.016;2023-09-12T14:43:04;1.08;;;0.63;;
65717;SDS011;52445;52.466;-1.016;2023-09-12T14:45:32;0.60;;;0.35;;
65717;SDS011;52445;52.466;-1.016;2023-09-12T14:48:00;0.60;;;0.60;;
65717;SDS011;52445;52.466;-1.016;2023-09-12T14:50:27;0.50;;;0.40;;
65717;SDS011;52445;52.466;-1.016;2023-09-12T14:53:06;0.80;;;0.55;;
65717;SDS011;52445;52.466;-1.016;2023-09-12T14:55:33;0.68;;;0.68;;
65717;SDS011;52445;52.466;-1.016;2023-09-12T14:57:59;0.70;;;0.50;;
65717;SDS011;52445;52.466;-1.016;2023-09-12T15:00:26;1.05;;;0.90;;